Time;durP1;ratioP1;P1;durP2;ratioP2;P2;SDS_P1;SDS_P2;PMS_P1;PMS_P2;Temp;Humidity;BMP_temperature;BMP_pressure;BME280_temperature;BME280_humidity;BME280_pressure;Samples;Min_cycle;Max_cycle;Signal;HPM_P1;HPM_P2
2022/11/12 00:00:42;;;;;;;6.57;2.42;;;6.20;99.90;;;;;;5033386;28;20052;-80
2022/11/12 00:03:08;;;;;;;7.55;3.58;;;6.20;99.90;;;;;;5049029;28;20499;-83
2022/11/12 00:05:34;;;;;;;4.15;3.42;;;6.20;99.90;;;;;;5067161;28;20040;-81
2022/11/12 00:08:00;;;;;;;4.75;3.00;;;6.20;99.90;;;;;;5067363;28;20117;-85
2022/11/12 00:10:26;;;;;;;5.10;2.08;;;6.20;99.90;;;;;;5065974;28;20044;-81
2022/11/12 00:12:52;;;;;;;4.05;3.25;;;6.10;99.90;;;;;;5066997;28;20403;-80
2022/11/12 00:15:18;;;;;;;5.30;3.30;;;6.20;99.90;;;;;;5066193;28;20044;-81
2022/11/12 00:17:44;;;;;;;12.95;4.47;;;6.20;99.90;;;;;;5065078;28;20044;-81
2022/11/12 00:20:10;;;;;;;15.88;4.05;;;6.30;99.90;;;;;;5046778;28;20480;-80
2022/11/12 00:22:36;;;;;;;3.88;2.65;;;6.10;99.90;;;;;;5065459;28;20056;-80
2022/11/12 00:25:02;;;;;;;5.05;2.35;;;6.00;99.90;;;;;;5051706;28;20041;-81
2022/11/12 00:27:28;;;;;;;6.00;3.50;;;6.00;99.90;;;;;;5065338;28;20463;-81
2022/11/12 00:29:54;;;;;;;3.80;2.75;;;6.00;99.90;;;;;;5068465;28;20044;-83
2022/11/12 00:32:19;;;;;;;5.72;2.90;;;5.90;99.90;;;;;;5068323;28;20044;-81
2022/11/12 00:34:45;;;;;;;6.65;3.33;;;5.90;99.90;;;;;;5050568;28;20342;-81
2022/11/12 00:37:11;;;;;;;3.47;2.60;;;5.90;99.90;;;;;;5065611;28;20123;-81
2022/11/12 00:39:36;;;;;;;6.75;3.70;;;5.90;99.90;;;;;;5066691;28;20490;-80
2022/11/12 00:42:03;;;;;;;8.13;3.05;;;5.80;99.90;;;;;;5062638;28;20059;-85
2022/11/12 00:44:28;;;;;;;4.90;4.10;;;5.80;99.90;;;;;;5050951;28;20094;-81
2022/11/12 00:46:55;;;;;;;4.22;2.38;;;5.80;99.90;;;;;;5067334;28;20072;-80
2022/11/12 00:49:21;;;;;;;8.88;2.80;;;5.80;99.90;;;;;;5049600;28;20123;-80
2022/11/12 00:51:47;;;;;;;4.47;2.33;;;5.80;99.90;;;;;;5064290;28;20036;-80
2022/11/12 00:54:13;;;;;;;7.82;3.35;;;5.80;99.90;;;;;;5067686;28;20037;-81
2022/11/12 00:56:39;;;;;;;9.77;3.45;;;5.80;99.90;;;;;;5064627;28;20063;-82
2022/11/12 00:59:04;;;;;;;3.67;1.98;;;5.80;99.90;;;;;;5065119;28;20040;-80
2022/11/12 01:01:30;;;;;;;4.57;2.13;;;5.80;99.90;;;;;;5064455;28;20045;-81
2022/11/12 01:03:58;;;;;;;6.28;2.90;;;5.70;99.90;;;;;;5051460;28;20044;-80
2022/11/12 01:06:24;;;;;;;2.88;2.22;;;5.70;99.90;;;;;;5067487;28;20490;-83
2022/11/12 01:08:50;;;;;;;7.22;3.67;;;5.80;99.90;;;;;;5064891;28;20078;-83
2022/11/12 01:11:20;;;;;;;6.57;3.10;;;5.70;99.90;;;;;;5045389;28;20471;-81
2022/11/12 01:13:47;;;;;;;7.75;3.00;;;5.80;99.90;;;;;;5065578;28;20032;-81
2022/11/12 01:16:22;;;;;;;6.85;2.75;;;5.70;99.90;;;;;;5048132;28;20075;-85
2022/11/12 01:18:53;;;;;;;8.10;2.40;;;5.80;99.90;;;;;;5062138;28;20131;-81
2022/11/12 01:21:19;;;;;;;4.28;2.55;;;5.70;99.90;;;;;;5066894;28;20390;-81
2022/11/12 01:23:45;;;;;;;3.72;2.13;;;5.60;99.90;;;;;;5049582;28;20064;-81
2022/11/12 01:26:13;;;;;;;4.68;3.20;;;5.60;99.90;;;;;;5069085;28;20124;-80
2022/11/12 01:28:40;;;;;;;5.90;2.47;;;5.70;99.90;;;;;;5051044;28;20055;-80
2022/11/12 01:31:15;;;;;;;5.03;2.17;;;5.50;99.90;;;;;;5046992;28;20388;-84
2022/11/12 01:33:42;;;;;;;4.80;3.00;;;5.60;99.90;;;;;;5065770;28;20062;-84
2022/11/12 01:36:09;;;;;;;6.20;3.25;;;5.60;99.90;;;;;;5069894;28;20407;-81
2022/11/12 01:38:40;;;;;;;5.47;2.92;;;5.60;99.90;;;;;;5065957;28;20037;-82
2022/11/12 01:41:07;;;;;;;3.15;2.53;;;5.60;99.90;;;;;;5051531;28;20041;-81
2022/11/12 01:43:33;;;;;;;8.05;3.13;;;5.60;99.90;;;;;;5069956;28;20115;-81
2022/11/12 01:46:02;;;;;;;13.32;3.83;;;5.60;99.90;;;;;;5069992;28;20103;-85
2022/11/12 01:48:36;;;;;;;5.53;2.88;;;5.60;99.90;;;;;;5053537;28;20056;-83
2022/11/12 01:51:03;;;;;;;6.18;3.10;;;5.50;99.90;;;;;;5067686;28;20121;-85
2022/11/12 01:53:34;;;;;;;5.53;2.83;;;5.50;99.90;;;;;;5068023;28;20357;-81
2022/11/12 01:56:04;;;;;;;4.30;2.53;;;5.50;99.90;;;;;;5062517;28;20044;-80
2022/11/12 01:58:32;;;;;;;7.55;2.97;;;5.50;99.90;;;;;;5068370;28;20052;-84
2022/11/12 02:00:59;;;;;;;5.15;2.08;;;5.50;99.90;;;;;;5069660;28;20045;-81
2022/11/12 02:03:25;;;;;;;3.53;2.35;;;5.50;99.90;;;;;;5070378;28;20115;-80
2022/11/12 02:05:58;;;;;;;5.50;2.92;;;5.40;99.90;;;;;;5049971;28;20135;-81
2022/11/12 02:08:24;;;;;;;6.43;2.72;;;5.50;99.90;;;;;;5072030;28;20123;-81
2022/11/12 02:10:50;;;;;;;4.55;2.55;;;5.40;99.90;;;;;;5050771;28;20167;-81
2022/11/12 02:16:07;;;;;;;3.22;2.35;;;5.30;99.90;;;;;;5073662;28;20514;-84
2022/11/12 02:18:33;;;;;;;7.23;3.53;;;5.30;99.90;;;;;;5073045;28;20567;-80
2022/11/12 02:21:06;;;;;;;5.13;2.75;;;5.30;99.90;;;;;;5053592;28;20327;-80
2022/11/12 02:23:31;;;;;;;4.47;2.90;;;5.30;99.90;;;;;;5069506;28;20036;-82
2022/11/12 02:26:00;;;;;;;12.65;3.20;;;5.30;99.90;;;;;;5070235;28;20106;-81
2022/11/12 02:28:29;;;;;;;7.40;3.17;;;5.30;99.90;;;;;;5051858;28;20404;-82
2022/11/12 02:30:54;;;;;;;5.22;2.83;;;5.30;99.90;;;;;;5050894;28;20057;-81
2022/11/12 02:33:20;;;;;;;4.57;2.75;;;5.20;99.90;;;;;;5058419;28;20059;-81
2022/11/12 02:35:45;;;;;;;4.07;2.85;;;5.30;99.90;;;;;;5065633;28;20056;-83
2022/11/12 02:38:11;;;;;;;7.03;3.28;;;5.20;99.90;;;;;;5053634;28;20040;-81
2022/11/12 02:40:37;;;;;;;6.70;2.70;;;5.30;99.90;;;;;;5068692;28;20059;-80
2022/11/12 02:43:03;;;;;;;5.47;4.15;;;5.20;99.90;;;;;;5068261;28;20060;-81
2022/11/12 02:45:30;;;;;;;3.58;3.17;;;5.30;99.90;;;;;;5048990;28;20068;-83
2022/11/12 02:47:56;;;;;;;5.40;2.72;;;5.30;99.90;;;;;;5061890;28;20044;-80
2022/11/12 02:50:23;;;;;;;4.55;2.63;;;5.40;99.90;;;;;;5051102;28;20123;-81
2022/11/12 02:52:48;;;;;;;7.80;3.20;;;5.30;99.90;;;;;;5051614;28;20141;-81
2022/11/12 02:55:14;;;;;;;3.88;2.58;;;5.30;99.90;;;;;;5070545;28;20044;-81
2022/11/12 02:57:40;;;;;;;14.32;3.08;;;5.30;99.90;;;;;;5050521;28;20045;-82
2022/11/12 03:00:09;;;;;;;13.02;4.55;;;5.30;99.90;;;;;;5051909;28;20045;-81
2022/11/12 03:02:41;;;;;;;4.30;2.22;;;5.30;99.90;;;;;;5065245;28;20496;-81
2022/11/12 03:05:09;;;;;;;4.00;2.90;;;5.30;99.90;;;;;;5064154;28;20591;-81
2022/11/12 03:07:35;;;;;;;6.10;3.78;;;5.20;99.90;;;;;;5065023;28;20047;-80
2022/11/12 03:10:00;;;;;;;4.45;2.55;;;5.30;99.90;;;;;;5068587;28;20123;-81
2022/11/12 03:12:26;;;;;;;3.92;2.90;;;5.30;99.90;;;;;;5054118;28;20090;-80
2022/11/12 03:14:52;;;;;;;8.90;3.08;;;5.20;99.90;;;;;;5066307;28;20153;-81
2022/11/12 03:17:17;;;;;;;7.63;4.40;;;5.20;99.90;;;;;;5048599;28;20049;-81
2022/11/12 03:19:43;;;;;;;6.65;3.05;;;5.20;99.90;;;;;;5047607;28;20139;-81
2022/11/12 03:22:09;;;;;;;5.35;2.47;;;5.10;99.90;;;;;;5068619;28;20472;-80
2022/11/12 03:24:34;;;;;;;6.63;3.42;;;5.10;99.90;;;;;;5051011;28;20479;-81
2022/11/12 03:27:00;;;;;;;3.97;2.45;;;5.10;99.90;;;;;;5062760;28;20392;-81
2022/11/12 03:29:25;;;;;;;8.18;3.60;;;5.10;99.90;;;;;;5050808;28;20067;-82
2022/11/12 03:31:51;;;;;;;14.02;2.92;;;5.10;99.90;;;;;;5048080;28;20067;-81
2022/11/12 03:34:17;;;;;;;4.45;2.72;;;5.00;99.90;;;;;;5054008;28;20102;-81
2022/11/12 03:36:42;;;;;;;7.38;3.33;;;5.10;99.90;;;;;;5046673;28;20068;-80
2022/11/12 03:39:08;;;;;;;5.45;2.33;;;5.00;99.90;;;;;;5067650;28;20490;-81
2022/11/12 03:41:34;;;;;;;5.30;2.78;;;5.10;99.90;;;;;;5049483;28;20428;-80
2022/11/12 03:44:00;;;;;;;5.75;3.50;;;5.10;99.90;;;;;;5067584;28;20045;-81
2022/11/12 03:46:25;;;;;;;3.90;2.47;;;5.00;99.90;;;;;;5066517;28;20063;-81
2022/11/12 03:48:52;;;;;;;5.43;3.47;;;5.00;99.90;;;;;;5045415;28;20048;-80
2022/11/12 03:51:20;;;;;;;6.63;2.75;;;4.90;99.90;;;;;;5052119;28;20127;-81
2022/11/12 03:53:45;;;;;;;6.03;3.13;;;4.90;99.90;;;;;;5064550;28;20052;-86
2022/11/12 03:56:11;;;;;;;7.28;2.33;;;4.90;99.90;;;;;;5028956;28;20510;-81
2022/11/12 03:58:37;;;;;;;5.30;3.25;;;4.70;99.90;;;;;;5065056;28;20131;-80
2022/11/12 04:01:03;;;;;;;4.47;2.13;;;4.80;99.90;;;;;;5070761;28;20040;-81
2022/11/12 04:03:28;;;;;;;5.82;3.08;;;4.90;99.90;;;;;;5050757;28;20040;-81
2022/11/12 04:08:38;;;;;;;6.40;2.83;;;4.90;99.90;;;;;;5044390;28;20364;-84
2022/11/12 04:11:11;;;;;;;6.15;2.55;;;4.80;99.90;;;;;;5047715;28;20049;-81
2022/11/12 04:13:37;;;;;;;3.10;2.75;;;4.70;99.90;;;;;;5048814;28;20361;-81
2022/11/12 04:21:50;;;;;;;14.57;3.05;;;4.80;99.90;;;;;;5061424;28;20471;-80
2022/11/12 04:27:05;;;;;;;3.67;2.33;;;4.80;99.90;;;;;;5047023;28;20106;-81
2022/11/12 04:32:16;;;;;;;6.18;2.78;;;4.70;99.90;;;;;;5047548;28;20505;-81
2022/11/12 04:34:42;;;;;;;7.47;3.35;;;4.70;99.90;;;;;;5066245;28;20068;-81
2022/11/12 04:37:08;;;;;;;3.95;2.50;;;4.70;99.90;;;;;;5052715;28;20063;-81
2022/11/12 04:39:33;;;;;;;3.08;1.92;;;4.70;99.90;;;;;;5064422;28;20459;-80
2022/11/12 04:44:59;;;;;;;4.18;2.53;;;4.60;99.90;;;;;;5064266;28;20041;-81
2022/11/12 04:47:39;;;;;;;8.45;2.63;;;4.60;99.90;;;;;;5021171;28;20057;-81
2022/11/12 04:50:17;;;;;;;4.15;2.40;;;4.60;99.90;;;;;;5022023;28;20137;-83
2022/11/12 04:52:43;;;;;;;5.30;2.80;;;4.60;99.90;;;;;;5022480;28;20483;-81
2022/11/12 04:55:09;;;;;;;3.05;2.75;;;4.60;99.90;;;;;;5023542;28;20042;-81
2022/11/12 04:57:36;;;;;;;2.75;1.90;;;4.60;99.90;;;;;;5025544;28;20042;-81
2022/11/12 05:00:03;;;;;;;5.30;2.00;;;4.70;99.90;;;;;;5026397;28;20503;-81
2022/11/12 05:02:29;;;;;;;7.47;3.03;;;4.60;99.90;;;;;;5022714;28;20049;-80
2022/11/12 05:04:55;;;;;;;5.00;2.22;;;4.70;99.90;;;;;;5024957;28;20044;-81
2022/11/12 05:07:20;;;;;;;4.80;2.65;;;4.70;99.90;;;;;;5008466;28;20056;-81
2022/11/12 05:09:46;;;;;;;2.90;1.83;;;4.60;99.90;;;;;;5029631;28;21563;-80
2022/11/12 05:12:12;;;;;;;2.10;1.83;;;4.60;99.90;;;;;;5026204;28;20103;-80
2022/11/12 05:14:37;;;;;;;6.88;2.55;;;4.60;99.90;;;;;;5022705;28;20033;-81
2022/11/12 05:17:04;;;;;;;4.75;3.05;;;4.50;99.90;;;;;;5026131;28;20037;-81
2022/11/12 05:19:29;;;;;;;4.47;3.03;;;4.50;99.90;;;;;;5044007;28;20041;-80
2022/11/12 05:22:04;;;;;;;5.45;2.80;;;4.50;99.90;;;;;;5025017;28;20079;-81
2022/11/12 05:24:39;;;;;;;5.97;2.88;;;4.50;99.90;;;;;;5024138;28;20392;-81
2022/11/12 05:27:08;;;;;;;3.88;2.97;;;4.40;99.90;;;;;;5026142;28;20057;-80
2022/11/12 05:29:33;;;;;;;6.25;2.50;;;4.40;99.90;;;;;;5021145;28;20049;-81
2022/11/12 05:31:59;;;;;;;2.25;1.45;;;4.30;99.90;;;;;;5025962;28;20048;-80
2022/11/12 05:34:25;;;;;;;1.88;1.45;;;4.30;99.90;;;;;;5025103;28;20068;-80
2022/11/12 05:36:51;;;;;;;2.10;1.83;;;4.30;99.90;;;;;;5026639;28;20068;-81
2022/11/12 05:39:16;;;;;;;4.88;1.42;;;4.30;99.90;;;;;;5023939;28;20096;-80
2022/11/12 05:41:42;;;;;;;4.13;1.85;;;4.20;99.90;;;;;;5028336;28;20050;-82
2022/11/12 05:44:08;;;;;;;3.67;2.08;;;4.20;99.90;;;;;;5029161;28;20041;-82
2022/11/12 05:46:34;;;;;;;4.45;3.13;;;4.20;99.90;;;;;;5026478;28;20484;-80
2022/11/12 05:49:00;;;;;;;2.55;1.80;;;4.30;99.90;;;;;;5065046;28;20110;-81
2022/11/12 05:51:26;;;;;;;2.83;1.20;;;4.20;99.90;;;;;;5044577;28;20136;-80
2022/11/12 05:53:51;;;;;;;2.78;1.98;;;4.10;99.90;;;;;;5034836;28;20041;-85
2022/11/12 05:56:17;;;;;;;4.55;1.70;;;4.20;99.90;;;;;;5043179;28;20041;-80
2022/11/12 05:58:43;;;;;;;3.30;2.47;;;4.20;99.90;;;;;;5051447;28;20556;-80
2022/11/12 06:01:08;;;;;;;4.80;1.80;;;4.10;99.90;;;;;;5043259;28;20159;-83
2022/11/12 06:03:34;;;;;;;3.38;2.25;;;4.10;99.90;;;;;;5046333;28;20127;-83
2022/11/12 06:06:00;;;;;;;1.95;1.23;;;4.10;99.90;;;;;;5064547;28;20045;-83
2022/11/12 06:08:26;;;;;;;3.03;2.13;;;4.00;99.90;;;;;;5064361;28;20052;-82
2022/11/12 06:10:53;;;;;;;3.22;2.55;;;4.00;99.90;;;;;;5070336;28;20036;-80
2022/11/12 06:13:20;;;;;;;4.88;2.83;;;4.00;99.90;;;;;;5067573;28;20041;-81
2022/11/12 06:15:46;;;;;;;5.63;2.65;;;4.10;99.90;;;;;;5067220;28;20080;-80
2022/11/12 06:18:12;;;;;;;5.88;2.38;;;4.00;99.90;;;;;;5070852;28;20076;-80
2022/11/12 06:20:38;;;;;;;2.33;1.83;;;4.10;99.90;;;;;;5075897;28;20049;-80
2022/11/12 06:23:03;;;;;;;5.20;2.97;;;4.00;99.90;;;;;;5039563;28;20067;-84
2022/11/12 06:25:29;;;;;;;5.57;2.38;;;4.10;99.90;;;;;;5054966;28;20067;-80
2022/11/12 06:27:55;;;;;;;5.97;1.92;;;4.20;99.90;;;;;;5074337;28;20044;-80
2022/11/12 06:30:21;;;;;;;2.47;1.40;;;4.00;99.90;;;;;;5070736;28;20440;-81
2022/11/12 06:32:50;;;;;;;3.22;1.50;;;4.00;99.90;;;;;;5067502;28;20554;-81
2022/11/12 06:35:17;;;;;;;4.80;2.08;;;4.00;99.90;;;;;;5068493;28;20040;-81
2022/11/12 06:37:47;;;;;;;2.33;1.70;;;4.00;99.90;;;;;;5034644;28;20130;-80
2022/11/12 06:40:13;;;;;;;5.07;1.65;;;4.00;99.90;;;;;;5063278;28;20072;-80
2022/11/12 06:42:39;;;;;;;10.05;2.95;;;3.90;99.90;;;;;;5055339;28;20511;-81
2022/11/12 06:45:05;;;;;;;3.40;2.28;;;3.90;99.90;;;;;;5054368;28;20043;-81
2022/11/12 06:47:31;;;;;;;3.38;1.73;;;3.90;99.90;;;;;;5061773;28;20053;-80
2022/11/12 06:49:57;;;;;;;2.35;2.15;;;3.90;99.90;;;;;;5022862;28;20105;-81
2022/11/12 06:52:23;;;;;;;2.88;1.20;;;3.80;99.90;;;;;;5046084;28;20051;-80
2022/11/12 06:54:48;;;;;;;2.88;2.67;;;3.80;99.90;;;;;;5070287;28;20368;-84
2022/11/12 06:57:14;;;;;;;1.85;1.60;;;3.80;99.90;;;;;;5066263;28;20051;-81
2022/11/12 06:59:40;;;;;;;3.10;1.95;;;3.90;99.90;;;;;;5035487;28;20470;-81
2022/11/12 07:02:05;;;;;;;4.15;2.65;;;3.90;99.90;;;;;;5027337;28;20092;-80
2022/11/12 07:04:31;;;;;;;3.30;1.80;;;3.80;99.90;;;;;;5063906;28;20041;-80
2022/11/12 07:06:57;;;;;;;1.85;1.73;;;3.90;99.90;;;;;;5067789;28;20048;-80
2022/11/12 07:09:22;;;;;;;0.95;0.88;;;3.80;99.90;;;;;;5067336;28;20033;-81
2022/11/12 07:11:48;;;;;;;1.17;1.10;;;3.80;99.90;;;;;;5049811;28;20040;-80
2022/11/12 07:14:14;;;;;;;3.72;1.98;;;3.70;99.90;;;;;;5038382;28;20049;-80
2022/11/12 07:16:40;;;;;;;1.65;1.40;;;3.60;99.90;;;;;;5050729;28;20480;-81
2022/11/12 07:19:05;;;;;;;3.10;2.00;;;3.60;99.90;;;;;;5064641;28;20044;-82
2022/11/12 07:21:31;;;;;;;2.00;1.80;;;3.60;99.90;;;;;;5066762;28;20083;-81
2022/11/12 07:23:57;;;;;;;1.80;1.58;;;3.50;99.90;;;;;;5068949;28;20056;-80
2022/11/12 07:26:26;;;;;;;3.50;2.22;;;3.60;99.90;;;;;;5065408;28;20106;-80
2022/11/12 07:28:55;;;;;;;1.55;1.45;;;3.60;99.90;;;;;;5053103;28;20368;-80
2022/11/12 07:31:26;;;;;;;1.90;1.65;;;3.60;99.90;;;;;;5073798;28;20045;-82
2022/11/12 07:33:52;;;;;;;2.58;1.65;;;3.60;99.90;;;;;;5068380;28;20056;-80
2022/11/12 07:36:20;;;;;;;4.50;2.45;;;3.60;99.90;;;;;;5039535;28;20040;-81
2022/11/12 07:38:49;;;;;;;1.73;1.25;;;3.60;99.90;;;;;;5038618;28;20040;-81
2022/11/12 07:41:20;;;;;;;2.88;1.88;;;3.60;99.90;;;;;;5070619;28;20036;-81
2022/11/12 07:43:47;;;;;;;2.22;1.73;;;3.70;99.90;;;;;;5073441;28;20458;-81
2022/11/12 07:46:15;;;;;;;2.25;1.85;;;3.70;99.90;;;;;;5034802;28;20048;-82
2022/11/12 07:48:43;;;;;;;2.97;2.30;;;3.60;99.90;;;;;;5036996;28;20514;-81
2022/11/12 07:51:13;;;;;;;3.75;2.60;;;3.60;99.90;;;;;;5043661;28;20055;-84
2022/11/12 07:53:39;;;;;;;3.88;2.00;;;3.70;99.90;;;;;;5048966;28;20045;-83
2022/11/12 07:56:05;;;;;;;2.72;2.53;;;3.70;99.90;;;;;;5066013;28;20386;-80
2022/11/12 07:58:33;;;;;;;10.00;4.80;;;3.80;99.90;;;;;;5053939;28;20044;-80
2022/11/12 08:01:22;;;;;;;1.65;1.55;;;3.80;99.90;;;;;;5054901;28;20056;-80
2022/11/12 08:03:47;;;;;;;4.22;2.38;;;3.80;99.90;;;;;;5050478;28;20056;-81
2022/11/12 08:06:13;;;;;;;2.78;1.70;;;3.90;99.90;;;;;;5047958;28;20154;-81
2022/11/12 08:08:39;;;;;;;3.22;2.17;;;4.00;99.90;;;;;;5041990;28;20101;-80
2022/11/12 08:11:04;;;;;;;6.88;2.17;;;4.00;99.90;;;;;;5068686;28;20401;-80
2022/11/12 08:13:30;;;;;;;4.60;3.00;;;4.10;99.90;;;;;;5067549;28;20041;-80
2022/11/12 08:15:57;;;;;;;3.10;2.15;;;4.20;99.90;;;;;;5041825;28;20044;-81
2022/11/12 08:18:23;;;;;;;2.90;2.33;;;4.30;99.90;;;;;;5045479;28;20098;-83
2022/11/12 08:20:49;;;;;;;3.47;2.67;;;4.40;99.90;;;;;;5055315;28;20080;-81
2022/11/12 08:23:15;;;;;;;3.63;2.20;;;4.50;99.90;;;;;;5072852;28;20525;-81
2022/11/12 08:25:41;;;;;;;3.83;1.60;;;4.50;99.90;;;;;;5072757;28;20441;-81
2022/11/12 08:28:08;;;;;;;3.05;2.53;;;4.60;99.90;;;;;;5020535;28;20136;-81
2022/11/12 08:30:34;;;;;;;2.75;1.70;;;4.60;99.90;;;;;;5069438;28;20490;-81
2022/11/12 08:33:07;;;;;;;2.72;2.35;;;4.70;99.90;;;;;;5065191;28;20094;-81
2022/11/12 08:35:33;;;;;;;4.45;2.40;;;4.70;99.90;;;;;;5044630;28;20499;-81
2022/11/12 08:38:00;;;;;;;3.10;1.80;;;4.80;99.90;;;;;;5061990;28;20075;-80
2022/11/12 08:40:31;;;;;;;2.38;1.83;;;5.00;99.90;;;;;;5065925;28;20046;-80
2022/11/12 08:43:05;;;;;;;4.57;1.80;;;4.90;99.90;;;;;;5065641;28;20582;-82
2022/11/12 08:45:33;;;;;;;2.88;2.25;;;5.00;99.90;;;;;;5064624;28;20044;-80
2022/11/12 08:48:00;;;;;;;4.10;3.05;;;5.10;99.90;;;;;;5067834;28;20063;-82
2022/11/12 08:50:27;;;;;;;2.67;2.15;;;5.20;99.90;;;;;;5044534;28;20095;-80
2022/11/12 08:52:57;;;;;;;3.83;2.78;;;5.40;99.90;;;;;;5050370;28;20044;-80
2022/11/12 08:55:23;;;;;;;7.20;2.55;;;5.50;99.90;;;;;;5071303;28;20116;-80
2022/11/12 08:57:48;;;;;;;4.60;2.42;;;5.80;99.90;;;;;;5048687;28;20182;-83
2022/11/12 09:00:14;;;;;;;4.18;2.42;;;6.10;99.90;;;;;;5032872;28;20077;-82
2022/11/12 09:02:40;;;;;;;8.30;4.25;;;6.30;99.90;;;;;;5048173;28;20119;-81
2022/11/12 09:05:06;;;;;;;5.00;2.58;;;6.60;99.90;;;;;;5042633;28;20444;-85
2022/11/12 09:07:32;;;;;;;5.63;3.15;;;6.70;99.90;;;;;;5051409;28;20051;-81
2022/11/12 09:09:57;;;;;;;4.65;3.42;;;6.90;99.90;;;;;;5066250;28;20432;-81
2022/11/12 09:12:23;;;;;;;6.68;2.88;;;7.00;99.90;;;;;;5046369;28;20441;-83
2022/11/12 09:14:49;;;;;;;6.35;3.92;;;7.20;99.90;;;;;;5028700;28;20069;-81
2022/11/12 09:17:15;;;;;;;5.25;3.33;;;7.40;99.90;;;;;;5045922;28;20048;-82
2022/11/12 09:19:41;;;;;;;9.43;3.25;;;7.80;99.90;;;;;;5031444;28;20044;-83
2022/11/12 09:22:07;;;;;;;6.85;3.63;;;8.40;99.90;;;;;;5048326;28;20051;-80
2022/11/12 09:24:33;;;;;;;7.82;3.67;;;9.00;99.90;;;;;;5045585;28;20049;-83
2022/11/12 09:26:59;;;;;;;5.03;3.53;;;9.80;99.90;;;;;;5047278;28;20047;-81
2022/11/12 09:29:24;;;;;;;12.40;3.88;;;10.30;99.90;;;;;;5068879;28;20128;-81
2022/11/12 09:31:58;;;;;;;5.63;3.13;;;10.80;99.90;;;;;;5063389;28;20109;-82
2022/11/12 09:34:26;;;;;;;4.07;3.05;;;11.10;99.90;;;;;;5042961;28;20472;-81
2022/11/12 09:37:12;;;;;;;6.07;3.97;;;11.40;99.90;;;;;;5049806;28;20054;-80
2022/11/12 09:39:38;;;;;;;7.25;4.30;;;11.40;99.90;;;;;;5049189;28;20075;-82
2022/11/12 09:42:15;;;;;;;6.82;3.60;;;11.10;99.90;;;;;;5061377;28;20045;-84
2022/11/12 09:44:59;;;;;;;5.03;3.13;;;10.70;99.90;;;;;;5065676;28;20052;-81
2022/11/12 09:47:37;;;;;;;5.70;3.25;;;10.50;99.90;;;;;;5053565;28;20048;-83
2022/11/12 09:50:25;;;;;;;5.95;3.90;;;10.50;99.90;;;;;;5065075;28;20087;-82
2022/11/12 09:52:59;;;;;;;8.15;3.22;;;10.20;99.90;;;;;;5046271;28;20120;-82
2022/11/12 09:55:30;;;;;;;4.75;2.90;;;9.90;99.90;;;;;;5069184;28;20040;-83
2022/11/12 09:57:56;;;;;;;3.47;3.10;;;9.60;99.90;;;;;;5046357;28;20518;-85
2022/11/12 10:00:22;;;;;;;8.77;4.32;;;9.40;99.90;;;;;;5050706;28;20529;-81
2022/11/12 10:03:13;;;;;;;7.85;4.18;;;9.20;99.90;;;;;;5071191;28;20049;-82
2022/11/12 10:05:50;;;;;;;10.55;5.15;;;9.00;99.90;;;;;;5057510;28;20045;-82
2022/11/12 10:08:41;;;;;;;9.48;5.00;;;8.90;99.90;;;;;;5075408;28;20388;-81
2022/11/12 10:11:28;;;;;;;5.53;3.55;;;8.80;99.90;;;;;;5058675;28;20052;-81
2022/11/12 10:14:17;;;;;;;5.95;3.53;;;8.70;99.90;;;;;;5060681;28;20041;-83
2022/11/12 10:17:22;;;;;;;6.68;4.18;;;8.70;99.90;;;;;;5057946;28;20167;-83
2022/11/12 10:20:06;;;;;;;6.43;3.10;;;8.70;99.90;;;;;;5058286;28;20051;-81
2022/11/12 10:22:40;;;;;;;4.75;3.53;;;8.60;99.90;;;;;;5027755;28;20071;-81
2022/11/12 10:25:24;;;;;;;3.78;2.70;;;8.80;99.90;;;;;;5068003;28;20047;-81
2022/11/12 10:27:55;;;;;;;6.40;3.83;;;8.80;99.90;;;;;;5031275;28;20081;-82
2022/11/12 10:30:23;;;;;;;5.80;3.80;;;8.80;99.90;;;;;;5072321;28;20178;-84
2022/11/12 10:32:50;;;;;;;5.43;3.60;;;8.90;99.90;;;;;;5075064;28;20048;-82
2022/11/12 10:35:19;;;;;;;6.43;3.78;;;8.90;99.90;;;;;;5054661;28;20049;-81
2022/11/12 10:37:55;;;;;;;5.38;3.33;;;8.90;99.90;;;;;;5068632;28;20049;-86
2022/11/12 10:40:23;;;;;;;8.68;3.80;;;8.90;99.90;;;;;;5066938;28;20057;-84
2022/11/12 10:43:05;;;;;;;6.25;3.60;;;8.90;99.90;;;;;;5058559;28;20495;-81
2022/11/12 10:45:31;;;;;;;6.57;4.13;;;9.00;99.90;;;;;;5055807;28;20509;-81
2022/11/12 10:47:58;;;;;;;6.47;3.35;;;9.00;99.90;;;;;;5057055;28;20060;-82
2022/11/12 10:50:44;;;;;;;8.77;3.88;;;9.10;99.90;;;;;;5057455;28;20135;-81
2022/11/12 10:53:11;;;;;;;8.43;3.72;;;9.20;99.90;;;;;;5071451;28;20421;-81
2022/11/12 10:55:53;;;;;;;4.40;3.20;;;9.30;99.90;;;;;;5053162;28;20124;-81
2022/11/12 10:58:19;;;;;;;;;;;9.40;99.90;;;;;;5075222;28;20052;-81
2022/11/12 11:01:00;;;;;;;7.13;3.63;;;9.50;99.90;;;;;;5057057;28;19920;-81
2022/11/12 11:03:35;;;;;;;5.93;3.35;;;9.60;99.90;;;;;;5072424;28;20444;-81
2022/11/12 11:06:24;;;;;;;5.13;3.28;;;9.70;99.90;;;;;;5073159;28;20048;-81
2022/11/12 11:08:52;;;;;;;5.53;4.45;;;9.80;99.90;;;;;;5074355;28;20056;-82
2022/11/12 11:11:28;;;;;;;5.18;3.50;;;9.90;99.90;;;;;;5056907;28;20466;-81
2022/11/12 11:13:56;;;;;;;6.57;3.55;;;10.00;99.90;;;;;;5050163;28;20119;-84
2022/11/12 11:16:24;;;;;;;6.35;3.45;;;10.10;99.90;;;;;;5064841;28;20093;-82
2022/11/12 11:19:05;;;;;;;8.20;4.15;;;10.20;99.90;;;;;;5062211;28;20380;-81
2022/11/12 11:21:34;;;;;;;5.80;3.22;;;10.30;99.90;;;;;;5051329;28;20044;-82
2022/11/12 11:24:11;;;;;;;5.75;3.42;;;10.30;99.90;;;;;;5051446;28;20044;-82
2022/11/12 11:26:55;;;;;;;9.02;3.88;;;10.40;99.90;;;;;;5066960;28;20048;-82
2022/11/12 11:29:47;;;;;;;8.25;3.70;;;10.50;99.90;;;;;;5062159;28;20051;-81
2022/11/12 11:32:22;;;;;;;4.78;3.35;;;10.60;99.90;;;;;;5064279;28;20365;-81
2022/11/12 11:35:26;;;;;;;7.50;3.88;;;10.70;99.90;;;;;;5052152;28;20053;-81
2022/11/12 11:38:02;;;;;;;10.98;3.55;;;10.80;99.90;;;;;;5064252;28;20056;-81
2022/11/12 11:40:35;;;;;;;9.75;4.43;;;10.90;99.90;;;;;;5052967;28;20059;-81
2022/11/12 11:43:25;;;;;;;14.57;4.47;;;11.00;99.90;;;;;;5055877;28;20438;-81
2022/11/12 11:46:35;;;;;;;7.78;3.72;;;11.10;99.90;;;;;;5054305;28;20472;-81
2022/11/12 11:49:04;;;;;;;5.10;3.15;;;11.30;99.90;;;;;;5010722;28;20058;-81
2022/11/12 11:51:36;;;;;;;6.55;3.58;;;11.50;99.90;;;;;;5046613;28;20124;-82
2022/11/12 11:54:28;;;;;;;7.63;4.03;;;11.50;99.90;;;;;;5033429;28;20056;-82
2022/11/12 11:56:59;;;;;;;6.57;3.85;;;11.60;99.90;;;;;;5047194;28;20472;-82
2022/11/12 11:59:46;;;;;;;10.98;4.70;;;11.70;99.90;;;;;;5028251;28;20042;-82
2022/11/12 12:02:42;;;;;;;9.43;4.78;;;11.80;99.90;;;;;;5051925;28;20404;-81
2022/11/12 12:05:24;;;;;;;5.97;3.10;;;11.80;99.90;;;;;;5047514;28;20061;-82
2022/11/12 12:08:08;;;;;;;11.65;4.03;;;11.80;99.90;;;;;;5032993;28;20132;-81
2022/11/12 12:10:40;;;;;;;6.25;3.50;;;11.90;99.90;;;;;;5049014;28;20059;-81
2022/11/12 12:13:18;;;;;;;5.85;3.65;;;12.00;99.90;;;;;;5045528;28;20396;-82
2022/11/12 12:16:12;;;;;;;6.00;4.15;;;12.10;99.90;;;;;;5044847;28;20106;-82
2022/11/12 12:18:43;;;;;;;6.10;3.67;;;12.20;99.90;;;;;;5051744;28;20107;-82
2022/11/12 12:21:11;;;;;;;7.95;3.90;;;12.30;99.90;;;;;;5033724;28;20072;-82
2022/11/12 12:24:05;;;;;;;4.85;3.75;;;12.40;99.90;;;;;;5032192;28;20080;-81
2022/11/12 12:26:45;;;;;;;9.18;4.10;;;12.40;99.90;;;;;;5014331;28;20045;-82
2022/11/12 12:29:20;;;;;;;11.85;3.70;;;12.40;99.90;;;;;;5033318;28;20124;-82
2022/11/12 12:32:01;;;;;;;57.28;10.07;;;12.30;99.90;;;;;;5049069;28;20052;-82
2022/11/12 12:35:01;;;;;;;9.77;3.47;;;12.30;99.90;;;;;;5033089;28;20045;-81
2022/11/12 12:38:06;;;;;;;11.15;3.50;;;12.40;99.90;;;;;;5041325;28;20089;-82
2022/11/12 12:40:53;;;;;;;8.00;4.43;;;12.40;99.90;;;;;;5031569;28;20415;-81
2022/11/12 12:43:26;;;;;;;11.70;3.42;;;12.60;99.90;;;;;;5031752;28;20503;-83
2022/11/12 12:45:51;;;;;;;9.07;3.83;;;12.70;99.90;;;;;;5033080;28;20081;-85
2022/11/12 12:48:24;;;;;;;8.70;4.35;;;12.70;99.90;;;;;;5040237;28;20417;-82
2022/11/12 12:50:51;;;;;;;7.80;4.18;;;12.80;99.90;;;;;;5032765;28;20054;-83
2022/11/12 12:53:26;;;;;;;7.18;3.72;;;12.70;99.90;;;;;;5031947;28;20052;-82
2022/11/12 12:56:01;;;;;;;9.80;3.92;;;12.70;99.90;;;;;;5032863;28;20146;-82
2022/11/12 12:58:28;;;;;;;6.50;3.83;;;12.70;99.90;;;;;;5028065;28;20064;-82
2022/11/12 13:01:18;;;;;;;4.78;3.40;;;12.70;99.90;;;;;;5024022;28;20048;-83
2022/11/12 13:03:57;;;;;;;5.38;3.53;;;12.70;99.90;;;;;;5031858;28;20052;-82
2022/11/12 13:06:38;;;;;;;9.82;4.68;;;12.80;99.90;;;;;;5021014;28;20056;-82
2022/11/12 13:09:20;;;;;;;6.28;3.38;;;12.80;99.90;;;;;;5027705;28;20488;-85
2022/11/12 13:14:36;;;;;;;14.85;4.45;;;12.70;99.90;;;;;;5023546;28;20404;-82
2022/11/12 13:17:06;;;;;;;4.55;3.20;;;12.70;99.90;;;;;;5031009;28;20167;-85
2022/11/12 13:19:34;;;;;;;5.43;3.60;;;12.70;99.90;;;;;;5012777;28;20054;-82
2022/11/12 13:22:26;;;;;;;6.10;3.72;;;12.70;99.90;;;;;;5020564;28;20085;-81
2022/11/12 13:25:07;;;;;;;6.88;4.25;;;12.80;99.90;;;;;;5017196;28;20046;-81
2022/11/12 13:27:39;;;;;;;7.78;3.83;;;12.80;99.90;;;;;;5026925;28;20050;-82
2022/11/12 13:30:16;;;;;;;5.47;4.03;;;12.80;99.90;;;;;;5023308;28;20124;-81
2022/11/12 13:32:45;;;;;;;10.27;4.45;;;12.80;99.90;;;;;;5029846;28;20057;-82